Time;durP1;ratioP1;P1;durP2;ratioP2;P2;SDS_P1;SDS_P2;PMS_P1;PMS_P2;Temp;Humidity;BMP_temperature;BMP_pressure;BME280_temperature;BME280_humidity;BME280_pressure;Samples;Min_cycle;Max_cycle;Signal;HPM_P1;HPM_P2
2022/03/09 00:04:41;;;;;;;7.27;4.63;;;;;;;2.72;31.19;101163.97;10246739;28;20211;-85
2022/03/09 00:09:44;;;;;;;7.20;4.97;;;;;;;2.69;32.05;101166.47;10258706;28;20302;-86
2022/03/09 00:14:46;;;;;;;8.80;4.90;;;;;;;2.95;31.21;101183.00;10255178;28;20265;-87
2022/03/09 00:19:49;;;;;;;10.87;5.43;;;;;;;2.76;30.52;101179.06;10235374;29;20235;-90
2022/03/09 00:24:51;;;;;;;9.50;5.33;;;;;;;2.33;32.07;101197.03;10251594;28;20238;-88
2022/03/09 00:29:54;;;;;;;7.50;4.93;;;;;;;3.09;30.47;101199.22;10243734;29;20215;-88
2022/03/09 00:34:57;;;;;;;8.13;5.37;;;;;;;3.11;30.39;101185.81;10244417;29;20215;-88
2022/03/09 00:39:59;;;;;;;11.57;5.30;;;;;;;2.70;31.51;101188.50;10231038;29;20415;-87
2022/03/09 00:45:02;;;;;;;8.37;5.37;;;;;;;2.26;32.10;101199.25;10244708;29;20203;-88
2022/03/09 00:50:05;;;;;;;9.73;6.03;;;;;;;2.62;31.97;101201.06;10229821;28;20235;-87
2022/03/09 00:55:08;;;;;;;7.57;5.10;;;;;;;2.80;31.26;101196.94;10238404;29;20208;-88
2022/03/09 01:00:14;;;;;;;8.63;5.77;;;;;;;2.72;31.69;101197.47;10240928;29;20215;-86
2022/03/09 01:05:17;;;;;;;13.20;5.33;;;;;;;1.95;33.11;101200.19;10241491;29;20223;-88
2022/03/09 01:10:19;;;;;;;8.53;5.33;;;;;;;2.11;32.70;101201.94;10237738;29;20577;-86
2022/03/09 01:15:22;;;;;;;9.03;5.23;;;;;;;1.78;33.31;101206.75;10301616;23;20236;-86
2022/03/09 01:20:24;;;;;;;8.73;5.77;;;;;;;1.90;32.75;101201.84;10202619;29;20251;-86
2022/03/09 01:25:26;;;;;;;9.83;6.23;;;;;;;1.95;33.46;101195.44;10205752;29;20204;-87
2022/03/09 01:30:29;;;;;;;9.17;6.07;;;;;;;2.44;32.66;101192.31;10203518;29;20248;-87
2022/03/09 01:35:31;;;;;;;8.83;5.40;;;;;;;1.67;33.48;101198.56;10204763;29;20553;-87
2022/03/09 01:40:34;;;;;;;9.40;5.83;;;;;;;1.61;33.79;101199.63;10203725;29;20212;-88
2022/03/09 01:45:36;;;;;;;11.10;5.90;;;;;;;1.46;33.77;101200.34;10197347;29;20208;-86
2022/03/09 01:50:39;;;;;;;8.77;5.57;;;;;;;1.49;33.87;101192.31;10205720;29;20271;-87
2022/03/09 01:55:41;;;;;;;8.10;5.40;;;;;;;1.87;33.32;101194.00;10205133;29;20271;-88
2022/03/09 02:00:44;;;;;;;10.23;5.97;;;;;;;1.13;34.68;101193.13;10203923;29;20219;-90
2022/03/09 02:05:47;;;;;;;7.97;5.73;;;;;;;1.75;33.73;101192.50;10220630;29;20279;-90
2022/03/09 02:10:50;;;;;;;8.67;5.93;;;;;;;1.25;34.24;101179.84;10188505;29;20240;-89
2022/03/09 02:15:52;;;;;;;9.30;6.03;;;;;;;1.68;33.89;101170.41;10216530;29;20282;-89
2022/03/09 02:20:58;;;;;;;9.53;5.73;;;;;;;1.94;33.29;101181.75;10242311;28;20183;-88
2022/03/09 02:26:00;;;;;;;9.83;6.10;;;;;;;1.28;34.42;101184.88;10242651;29;20207;-88
2022/03/09 02:31:03;;;;;;;9.37;6.50;;;;;;;1.31;34.52;101183.50;10227501;29;20234;-88
2022/03/09 02:36:06;;;;;;;8.93;5.67;;;;;;;1.05;35.22;101180.50;10258302;29;20221;-86
2022/03/09 02:41:09;;;;;;;11.60;6.57;;;;;;;0.89;35.63;101187.00;10257649;29;20195;-87
2022/03/09 02:46:11;;;;;;;10.30;5.40;;;;;;;1.50;33.91;101204.31;10240745;29;20267;-87
2022/03/09 02:51:14;;;;;;;9.27;5.83;;;;;;;1.79;33.46;101190.81;10241198;29;20234;-88
2022/03/09 02:56:16;;;;;;;9.33;6.10;;;;;;;1.22;34.71;101194.31;10224806;29;20203;-88
2022/03/09 03:01:18;;;;;;;10.07;6.30;;;;;;;1.34;34.41;101194.97;10240812;29;20666;-88
2022/03/09 03:06:21;;;;;;;10.30;6.27;;;;;;;1.40;34.24;101191.09;10256629;29;20200;-88
2022/03/09 03:11:23;;;;;;;9.87;6.07;;;;;;;1.26;34.66;101187.09;10241127;29;20219;-88
2022/03/09 03:16:25;;;;;;;11.17;6.33;;;;;;;1.45;34.06;101185.59;10245174;29;20328;-88
2022/03/09 03:21:28;;;;;;;8.57;5.47;;;;;;;0.83;35.34;101194.47;10257046;29;20576;-88
2022/03/09 03:26:30;;;;;;;9.17;6.17;;;;;;;0.92;35.30;101188.44;10240569;29;20266;-89
2022/03/09 03:31:33;;;;;;;10.67;6.30;;;;;;;0.99;35.25;101172.38;10250023;28;20222;-88
2022/03/09 03:36:36;;;;;;;10.70;6.40;;;;;;;0.49;35.62;101173.47;10226701;29;20274;-91
2022/03/09 03:41:38;;;;;;;11.23;6.13;;;;;;;0.98;35.11;101173.47;10220549;29;20254;-89
2022/03/09 03:46:41;;;;;;;7.77;6.10;;;;;;;0.54;36.26;101179.13;10235628;28;20215;-88
2022/03/09 03:51:43;;;;;;;11.60;6.40;;;;;;;0.72;35.64;101170.44;10232647;28;20212;-89
2022/03/09 03:56:46;;;;;;;10.93;5.97;;;;;;;1.03;34.74;101171.56;10200157;29;20208;-89
2022/03/09 04:01:48;;;;;;;9.27;5.63;;;;;;;0.72;35.39;101176.00;10200578;29;20651;-90
2022/03/09 04:06:51;;;;;;;9.63;5.37;;;;;;;0.78;35.03;101177.72;10226494;29;20270;-90
2022/03/09 04:11:53;;;;;;;10.23;5.87;;;;;;;0.69;35.75;101170.09;10255710;29;20222;-91
2022/03/09 04:16:55;;;;;;;12.23;6.07;;;;;;;0.71;35.56;101160.41;10234032;29;20235;-90
2022/03/09 04:21:58;;;;;;;10.07;4.80;;;;;;;1.41;33.29;101161.28;10254570;29;20274;-90
2022/03/09 04:27:00;;;;;;;9.23;4.93;;;;;;;0.94;34.68;101159.22;10255208;29;20230;-90
2022/03/09 04:32:03;;;;;;;7.27;3.97;;;;;;;1.75;32.11;101164.63;10239261;29;20227;-89
2022/03/09 04:37:06;;;;;;;5.37;3.50;;;;;;;2.44;29.99;101158.84;10239154;29;20549;-90
2022/03/09 04:42:08;;;;;;;4.43;3.37;;;;;;;2.18;30.43;101167.09;10239150;28;20196;-89
2022/03/09 04:47:10;;;;;;;4.53;3.27;;;;;;;2.40;30.49;101169.72;10229779;29;20204;-91
2022/03/09 04:52:12;;;;;;;3.90;3.40;;;;;;;2.46;29.68;101167.78;10245741;29;20243;-89
2022/03/09 04:57:15;;;;;;;6.43;3.37;;;;;;;2.31;29.86;101164.94;10245373;29;20600;-89
2022/03/09 05:02:17;;;;;;;3.57;3.17;;;;;;;2.34;30.28;101172.75;10260677;29;20223;-88
2022/03/09 05:07:20;;;;;;;7.13;4.03;;;;;;;1.66;31.18;101163.41;10217243;29;20243;-88
2022/03/09 05:12:22;;;;;;;7.90;4.63;;;;;;;1.12;32.17;101183.06;10214165;28;20258;-90
2022/03/09 05:17:24;;;;;;;9.50;5.00;;;;;;;0.47;34.37;101181.28;10240438;28;20670;-88
2022/03/09 05:22:26;;;;;;;7.90;5.40;;;;;;;0.85;33.90;101188.66;10253307;28;20285;-87
2022/03/09 05:27:28;;;;;;;9.17;5.07;;;;;;;1.06;33.54;101189.69;10253184;29;20499;-87
2022/03/09 05:32:31;;;;;;;14.63;5.70;;;;;;;0.93;34.12;101177.03;10282468;28;20222;-87
2022/03/09 05:37:40;;;;;;;14.47;5.67;;;;;;;0.63;34.84;101191.47;10276874;28;20207;-87
2022/03/09 05:42:43;;;;;;;10.60;5.33;;;;;;;0.17;35.64;101203.09;10231348;29;20740;-86
2022/03/09 05:47:52;;;;;;;10.30;5.33;;;;;;;0.32;34.71;101208.91;10250527;28;20207;-86
2022/03/09 05:52:55;;;;;;;12.53;5.57;;;;;;;0.64;34.27;101209.84;10232138;29;20267;-86
2022/03/09 05:57:57;;;;;;;7.67;4.97;;;;;;;0.99;33.64;101222.50;10232161;28;20582;-86
2022/03/09 06:02:59;;;;;;;7.57;5.17;;;;;;;0.32;34.56;101220.03;10245845;29;20560;-87
2022/03/09 06:08:03;;;;;;;9.70;4.90;;;;;;;0.65;34.56;101225.44;10231739;29;20207;-85
2022/03/09 06:13:05;;;;;;;10.77;5.20;;;;;;;1.02;34.13;101230.28;10231190;29;20242;-88
2022/03/09 06:18:08;;;;;;;7.83;4.60;;;;;;;0.63;35.08;101227.63;10238244;29;20317;-85
2022/03/09 06:23:10;;;;;;;9.00;5.53;;;;;;;0.70;34.38;101225.50;10229433;29;20563;-86
2022/03/09 06:28:13;;;;;;;17.27;6.07;;;;;;;0.77;34.87;101228.06;10242577;29;20211;-85
2022/03/09 06:33:15;;;;;;;16.77;6.40;;;;;;;0.39;35.74;101226.22;10236070;29;20211;-85
2022/03/09 06:38:18;;;;;;;18.17;5.40;;;;;;;0.94;34.43;101222.41;10211351;29;20230;-85
2022/03/09 06:43:20;;;;;;;9.93;4.30;;;;;;;1.43;32.59;101225.97;10240734;29;20216;-84
2022/03/09 06:48:22;;;;;;;8.47;3.77;;;;;;;2.01;30.42;101219.47;10240557;29;20279;-85
2022/03/09 06:53:25;;;;;;;9.03;3.97;;;;;;;1.56;30.66;101231.94;10236758;29;20234;-85
2022/03/09 06:58:27;;;;;;;11.37;3.33;;;;;;;1.41;30.38;101240.16;10232745;29;20231;-85
2022/03/09 07:03:30;;;;;;;13.10;5.20;;;;;;;1.97;29.90;101237.00;10255587;28;20207;-85
2022/03/09 07:08:33;;;;;;;15.20;3.50;;;;;;;2.26;29.70;101236.34;10252286;28;20690;-85
2022/03/09 07:13:35;;;;;;;8.83;3.10;;;;;;;2.80;28.67;101224.88;10254879;29;20399;-86
2022/03/09 07:18:37;;;;;;;4.10;2.77;;;;;;;1.68;29.11;101226.16;10254765;29;20227;-85
2022/03/09 07:23:40;;;;;;;7.13;3.40;;;;;;;1.89;28.51;101235.56;10235166;29;20211;-83
2022/03/09 07:28:42;;;;;;;5.47;2.80;;;;;;;1.88;28.87;101239.47;10231217;29;20298;-86
2022/03/09 07:33:44;;;;;;;4.00;2.70;;;;;;;1.64;29.19;101232.56;10252567;29;20223;-84
2022/03/09 07:38:47;;;;;;;5.23;2.87;;;;;;;2.26;28.36;101236.34;10236643;29;20608;-84
2022/03/09 07:44:09;;;;;;;4.93;2.90;;;;;;;2.19;28.45;101246.91;10224296;29;20242;-86
2022/03/09 07:49:12;;;;;;;5.00;2.77;;;;;;;2.79;27.75;101239.94;10249626;29;20218;-85
2022/03/09 07:54:14;;;;;;;4.67;2.77;;;;;;;2.64;27.94;101242.66;10254731;29;20261;-85
2022/03/09 07:59:17;;;;;;;3.87;3.10;;;;;;;3.15;27.31;101243.66;10250531;29;20199;-85
2022/03/09 08:04:20;;;;;;;6.87;2.97;;;;;;;3.56;26.56;101252.97;10214689;29;20210;-85
2022/03/09 08:09:22;;;;;;;6.50;3.00;;;;;;;3.32;26.66;101251.84;10250089;29;20305;-83
2022/03/09 08:14:25;;;;;;;4.47;3.30;;;;;;;3.69;26.47;101251.56;10254711;29;20442;-85
2022/03/09 08:19:28;;;;;;;4.97;3.43;;;;;;;4.93;25.25;101251.81;10256748;28;20884;-85
2022/03/09 08:24:32;;;;;;;6.87;3.47;;;;;;;4.71;25.50;101253.06;10259891;29;20507;-86
2022/03/09 08:29:37;;;;;;;5.67;3.50;;;;;;;4.73;25.56;101253.63;10259278;29;20270;-83
2022/03/09 08:34:39;;;;;;;11.63;3.40;;;;;;;5.41;24.46;101255.75;10251140;29;20520;-83
2022/03/09 08:39:43;;;;;;;6.47;3.07;;;;;;;5.36;24.70;101255.78;10238621;29;20199;-83
2022/03/09 08:44:51;;;;;;;5.77;3.77;;;;;;;5.74;24.32;101254.97;10249981;29;20204;-83
2022/03/09 08:49:53;;;;;;;5.17;3.17;;;;;;;5.32;24.31;101265.91;10230035;29;20279;-83
2022/03/09 08:55:15;;;;;;;6.73;3.83;;;;;;;5.79;23.96;101254.91;10232601;29;20208;-84
2022/03/09 09:00:17;;;;;;;10.13;3.60;;;;;;;6.00;23.57;101249.09;10224484;29;20587;-84
2022/03/09 09:05:20;;;;;;;4.60;3.50;;;;;;;5.55;23.77;101253.94;10230577;29;20211;-82
2022/03/09 09:10:24;;;;;;;3.40;3.07;;;;;;;5.96;23.30;101256.44;10221107;29;20259;-83
2022/03/09 09:15:28;;;;;;;8.93;3.73;;;;;;;6.48;23.06;101262.06;10229409;29;20230;-84
2022/03/09 09:20:31;;;;;;;5.37;4.13;;;;;;;6.93;22.47;101254.25;10248767;29;20226;-84
2022/03/09 09:25:33;;;;;;;6.33;3.73;;;;;;;6.90;22.33;101249.22;10228278;29;20612;-83
2022/03/09 09:30:36;;;;;;;5.17;3.40;;;;;;;6.90;22.54;101240.78;10243017;29;20254;-84
2022/03/09 09:35:38;;;;;;;4.67;3.00;;;;;;;7.89;21.12;101251.94;10228872;28;20270;-82
2022/03/09 09:40:43;;;;;;;4.13;3.40;;;;;;;7.41;21.23;101242.84;10241317;29;20259;-84
2022/03/09 09:45:45;;;;;;;7.67;3.73;;;;;;;7.55;21.67;101244.59;10234431;28;20215;-84
2022/03/09 09:50:48;;;;;;;6.03;3.73;;;;;;;8.42;20.30;101238.28;10239624;28;20243;-84
2022/03/09 09:55:50;;;;;;;6.87;4.07;;;;;;;8.00;20.64;101235.72;10231762;29;20214;-83
2022/03/09 10:00:52;;;;;;;6.40;4.03;;;;;;;7.69;20.34;101235.38;10229462;28;20501;-84
2022/03/09 10:05:55;;;;;;;6.57;3.90;;;;;;;8.81;19.46;101225.66;10240618;29;20273;-84
2022/03/09 10:11:02;;;;;;;5.33;3.20;;;;;;;8.49;19.72;101233.06;10230908;29;20230;-84
2022/03/09 10:16:20;;;;;;;4.80;3.57;;;;;;;9.45;18.53;101223.63;10225179;28;20219;-84
2022/03/09 10:21:26;;;;;;;7.10;3.87;;;;;;;8.12;19.82;101234.09;10257035;28;20248;-84
2022/03/09 10:26:31;;;;;;;5.07;3.50;;;;;;;8.36;19.16;101231.09;10229673;29;20278;-85
2022/03/09 10:31:41;;;;;;;7.13;3.90;;;;;;;8.58;18.99;101236.00;10258534;29;20223;-85
2022/03/09 10:37:05;;;;;;;5.60;3.87;;;;;;;8.81;18.96;101239.75;10241360;29;20207;-83
2022/03/09 10:42:24;;;;;;;4.93;3.83;;;;;;;8.79;18.96;101240.09;10236362;28;20215;-83
2022/03/09 10:47:32;;;;;;;4.87;3.90;;;;;;;8.33;19.05;101244.94;10248630;29;20219;-85
2022/03/09 10:52:44;;;;;;;5.13;3.70;;;;;;;8.43;19.17;101241.94;10249384;29;20255;-85
2022/03/09 10:57:47;;;;;;;6.40;3.70;;;;;;;8.86;19.21;101232.03;10265396;28;20535;-85
2022/03/09 11:02:51;;;;;;;5.40;3.60;;;;;;;9.46;18.01;101226.13;10245194;29;20477;-85
2022/03/09 11:07:54;;;;;;;3.80;3.40;;;;;;;9.62;18.13;101221.81;10238854;29;20211;-85
2022/03/09 11:12:56;;;;;;;4.70;4.20;;;;;;;9.14;17.91;101221.56;10250058;29;20272;-85
2022/03/09 11:17:58;;;;;;;7.90;3.40;;;;;;;9.44;17.60;101210.69;10239116;28;20239;-85
2022/03/09 11:23:01;;;;;;;5.18;3.25;;;;;;;9.24;17.55;101215.66;10216562;29;20254;-82
2022/03/09 11:28:04;;;;;;;5.03;4.10;;;;;;;9.05;18.15;101216.97;10249114;29;20489;-85
2022/03/09 11:33:35;;;;;;;4.27;3.53;;;;;;;10.18;17.18;101196.91;10252715;28;20301;-84
2022/03/09 11:38:38;;;;;;;4.37;3.43;;;;;;;9.45;17.40;101195.41;10235945;29;20263;-84
2022/03/09 11:43:40;;;;;;;4.50;3.63;;;;;;;9.63;17.33;101200.06;10226546;29;20728;-83
2022/03/09 11:48:52;;;;;;;4.37;3.30;;;;;;;10.36;17.24;101190.16;10242489;28;20655;-84
2022/03/09 11:53:59;;;;;;;4.82;4.13;;;;;;;9.81;17.32;101184.91;10253590;28;20223;-86
2022/03/09 11:59:12;;;;;;;4.23;3.57;;;;;;;10.65;16.32;101176.34;10250873;29;20203;-85
2022/03/09 12:04:39;;;;;;;5.43;4.13;;;;;;;10.70;16.58;101173.38;10230054;29;20524;-85
2022/03/09 12:09:57;;;;;;;12.40;4.32;;;;;;;9.83;16.96;101174.13;10248775;29;21149;-85
2022/03/09 12:14:59;;;;;;;7.03;3.87;;;;;;;9.93;16.87;101173.84;10234534;28;20611;-84
2022/03/09 12:20:24;;;;;;;6.30;3.87;;;;;;;10.38;16.92;101165.22;10249963;28;20215;-85
2022/03/09 12:25:38;;;;;;;3.90;3.17;;;;;;;9.45;17.22;101170.00;10268968;28;20498;-85
2022/03/09 12:30:40;;;;;;;4.33;3.83;;;;;;;9.50;17.42;101178.34;10250140;29;20258;-85
2022/03/09 12:35:42;;;;;;;6.80;3.67;;;;;;;10.52;17.02;101171.63;10255083;29;20270;-85
2022/03/09 12:40:45;;;;;;;6.15;3.58;;;;;;;9.93;16.83;101165.38;10224129;29;20208;-85
2022/03/09 12:45:59;;;;;;;5.03;3.97;;;;;;;11.71;15.77;101154.25;10234328;29;20545;-85
2022/03/09 12:51:05;;;;;;;5.27;4.00;;;;;;;10.40;16.78;101163.75;10224720;29;20227;-86
2022/03/09 12:56:19;;;;;;;7.93;4.97;;;;;;;11.32;16.10;101150.47;10232434;29;20512;-85
2022/03/09 13:01:36;;;;;;;5.97;3.90;;;;;;;10.96;15.31;101141.44;10255055;29;20461;-86
2022/03/09 13:06:39;;;;;;;5.95;4.03;;;;;;;10.64;16.55;101137.91;10258328;28;20596;-85
2022/03/09 13:11:41;;;;;;;6.67;3.60;;;;;;;12.01;14.92;101132.50;10249069;29;20228;-85
2022/03/09 13:16:45;;;;;;;5.10;3.70;;;;;;;11.04;15.90;101134.94;10229709;29;20290;-85
2022/03/09 13:21:48;;;;;;;4.90;3.97;;;;;;;11.52;15.15;101142.47;10225228;29;20215;-86
2022/03/09 13:26:50;;;;;;;5.53;4.25;;;;;;;11.50;14.83;101128.66;10240004;28;20203;-86
2022/03/09 13:31:59;;;;;;;5.15;3.80;;;;;;;11.40;14.93;101129.81;10260623;29;20274;-86
2022/03/09 13:37:18;;;;;;;4.83;3.70;;;;;;;12.71;13.89;101109.13;10258072;29;20255;-85
2022/03/09 13:42:26;;;;;;;4.83;3.70;;;;;;;12.03;14.97;101114.00;10243016;29;20702;-86
2022/03/09 13:48:03;;;;;;;5.50;3.57;;;;;;;13.31;13.70;101107.84;10243605;29;20227;-88
2022/03/09 13:53:07;;;;;;;4.82;3.78;;;;;;;12.68;14.23;101112.66;10259677;28;20218;-86
2022/03/09 13:58:13;;;;;;;7.22;3.70;;;;;;;12.02;14.35;101118.00;10251867;28;20583;-86
2022/03/09 14:03:17;;;;;;;6.80;3.60;;;;;;;12.98;13.93;101109.78;10239501;29;20223;-86
2022/03/09 14:08:32;;;;;;;6.07;3.87;;;;;;;11.45;14.95;101109.81;10243803;29;20207;-86
2022/03/09 14:13:38;;;;;;;6.23;3.53;;;;;;;11.48;14.93;101102.66;10242851;29;20219;-86
2022/03/09 14:18:40;;;;;;;5.00;3.58;;;;;;;12.66;13.47;101098.00;10247098;28;20240;-86
2022/03/09 14:23:46;;;;;;;5.53;3.72;;;;;;;12.06;14.03;101101.97;10256757;29;20254;-86
2022/03/09 14:28:48;;;;;;;5.07;3.50;;;;;;;11.45;14.13;101109.81;10227114;29;20258;-86
2022/03/09 14:33:51;;;;;;;8.07;3.87;;;;;;;12.78;13.32;101091.56;10246061;29;20258;-87
2022/03/09 14:38:54;;;;;;;7.35;3.03;;;;;;;12.57;13.52;101085.84;10240470;29;20544;-85
2022/03/09 14:43:56;;;;;;;3.42;2.83;;;;;;;11.48;14.68;101091.34;10247081;29;20259;-84
2022/03/09 14:48:59;;;;;;;4.97;3.03;;;;;;;11.92;13.68;101081.50;10234680;29;20211;-85
2022/03/09 14:54:01;;;;;;;7.80;2.92;;;;;;;12.86;13.53;101068.81;10250974;29;20663;-85
2022/03/09 14:59:03;;;;;;;6.55;3.70;;;;;;;12.46;13.40;101076.09;10222287;29;20277;-84
2022/03/09 15:04:06;;;;;;;4.17;3.63;;;;;;;12.13;13.84;101073.97;10231321;29;20211;-84
2022/03/09 15:09:08;;;;;;;5.40;4.10;;;;;;;11.88;14.46;101082.56;10241906;29;20267;-84
2022/03/09 15:14:11;;;;;;;6.90;3.40;;;;;;;12.19;13.93;101086.75;10240137;29;20314;-84
2022/03/09 15:19:13;;;;;;;4.00;3.13;;;;;;;12.42;13.20;101077.97;10215036;29;20716;-85
2022/03/09 15:24:16;;;;;;;4.13;2.92;;;;;;;11.85;13.63;101084.06;10244825;29;20250;-83
2022/03/09 15:29:18;;;;;;;4.45;3.95;;;;;;;12.38;13.51;101074.97;10254468;28;20207;-82
2022/03/09 15:34:20;;;;;;;5.53;3.85;;;;;;;12.75;13.22;101070.38;10257623;28;20718;-83
2022/03/09 15:39:24;;;;;;;5.37;3.03;;;;;;;13.03;14.10;101076.38;10241650;28;20203;-84
2022/03/09 15:44:26;;;;;;;3.97;3.57;;;;;;;12.96;13.91;101075.25;10238720;29;20203;-83
2022/03/09 15:49:30;;;;;;;6.70;3.45;;;;;;;12.50;13.88;101077.06;10218023;29;20195;-84
2022/03/09 15:54:32;;;;;;;6.45;3.83;;;;;;;12.71;13.67;101065.72;10222442;29;20246;-85
2022/03/09 15:59:35;;;;;;;3.28;2.97;;;;;;;13.30;13.47;101066.41;10238528;29;20203;-84
2022/03/09 16:04:37;;;;;;;3.22;2.92;;;;;;;13.35;12.83;101068.19;10233512;28;20226;-84
2022/03/09 16:09:40;;;;;;;6.65;3.67;;;;;;;13.19;14.37;101070.88;10230149;28;20231;-84
2022/03/09 16:14:42;;;;;;;8.93;3.85;;;;;;;13.25;13.69;101072.31;10226346;28;20331;-84
2022/03/09 16:19:45;;;;;;;7.38;3.58;;;;;;;13.04;13.63;101075.19;10252050;28;20488;-85
2022/03/09 16:24:51;;;;;;;6.93;3.53;;;;;;;13.41;13.37;101078.16;10288724;28;20587;-85
2022/03/09 16:29:54;;;;;;;3.60;3.05;;;;;;;13.20;13.87;101072.53;10272682;28;20257;-84
2022/03/09 16:34:56;;;;;;;6.80;2.95;;;;;;;13.13;13.92;101077.94;10253121;28;20262;-83
2022/03/09 16:39:58;;;;;;;5.03;3.40;;;;;;;12.36;14.33;101087.84;10233385;28;20207;-85
2022/03/09 16:45:01;;;;;;;4.65;3.35;;;;;;;12.76;14.03;101086.22;10255201;29;20191;-85
2022/03/09 16:50:04;;;;;;;5.03;3.40;;;;;;;12.37;14.26;101089.50;10241846;29;20207;-86
2022/03/09 16:55:07;;;;;;;5.47;3.83;;;;;;;12.46;14.31;101098.78;10239527;29;20231;-84
2022/03/09 17:00:12;;;;;;;7.88;4.00;;;;;;;12.19;14.47;101106.59;10237502;28;20301;-84
2022/03/09 17:05:14;;;;;;;5.55;4.00;;;;;;;12.33;14.04;101105.53;10242137;29;20219;-86
2022/03/09 17:10:22;;;;;;;7.38;4.93;;;;;;;11.99;14.63;101113.00;10242976;28;20254;-85
2022/03/09 17:15:24;;;;;;;4.72;3.42;;;;;;;11.91;14.59;101130.84;10239451;29;20281;-84
2022/03/09 17:20:27;;;;;;;5.03;3.77;;;;;;;11.69;15.24;101142.41;10224077;28;20239;-84
2022/03/09 17:25:29;;;;;;;11.57;4.63;;;;;;;11.48;15.89;101148.78;10234815;28;20226;-84
2022/03/09 17:30:34;;;;;;;19.13;5.60;;;;;;;10.96;17.49;101149.94;10248438;28;20262;-86
2022/03/09 17:35:36;;;;;;;9.00;4.25;;;;;;;11.01;16.82;101147.75;10235214;28;20639;-85
2022/03/09 17:40:39;;;;;;;13.23;5.07;;;;;;;11.02;16.54;101149.44;10232581;28;20215;-84
2022/03/09 17:45:42;;;;;;;11.50;4.93;;;;;;;10.78;17.69;101157.56;10253347;29;20578;-84
2022/03/09 17:50:47;;;;;;;12.27;4.60;;;;;;;10.47;18.45;101163.31;10247949;28;20203;-84
2022/03/09 17:55:49;;;;;;;12.30;5.20;;;;;;;10.63;17.67;101173.00;10246537;28;20544;-85
2022/03/09 18:00:51;;;;;;;11.30;4.57;;;;;;;10.50;18.34;101179.59;10242538;29;21012;-86
2022/03/09 18:05:54;;;;;;;12.17;5.30;;;;;;;10.36;18.81;101185.34;10242891;29;20223;-88
2022/03/09 18:10:56;;;;;;;8.60;4.50;;;;;;;10.24;19.92;101187.97;10231230;28;20207;-87
2022/03/09 18:16:18;;;;;;;16.43;8.03;;;;;;;9.64;19.44;101185.63;10218476;28;20250;-86
2022/03/09 18:21:21;;;;;;;12.70;7.30;;;;;;;9.69;20.13;101193.16;10232087;29;20208;-87
2022/03/09 18:26:23;;;;;;;9.10;5.20;;;;;;;9.55;21.40;101192.34;10260166;28;20262;-88
2022/03/09 18:31:26;;;;;;;7.03;4.53;;;;;;;9.44;21.70;101197.41;10236207;29;20698;-87
2022/03/09 18:36:28;;;;;;;13.90;5.73;;;;;;;9.46;21.12;101188.59;10215492;29;20612;-86
2022/03/09 18:41:32;;;;;;;7.83;4.27;;;;;;;9.21;22.10;101190.91;10216967;29;20760;-86
2022/03/09 18:46:35;;;;;;;13.67;5.70;;;;;;;9.21;21.47;101188.06;10227570;29;20215;-88
2022/03/09 18:51:38;;;;;;;7.73;5.67;;;;;;;9.13;20.66;101191.66;10227649;28;20623;-87
2022/03/09 18:56:40;;;;;;;7.60;5.43;;;;;;;9.00;20.83;101192.53;10224393;28;20234;-84
2022/03/09 19:01:43;;;;;;;9.93;6.50;;;;;;;9.00;20.87;101201.84;10231901;28;20211;-87
2022/03/09 19:06:46;;;;;;;7.60;5.37;;;;;;;9.05;21.39;101200.06;10237775;29;20203;-87
2022/03/09 19:11:49;;;;;;;6.87;5.23;;;;;;;9.03;20.76;101211.66;10234927;29;20235;-86
2022/03/09 19:16:51;;;;;;;9.57;5.97;;;;;;;8.98;21.49;101214.56;10252895;29;20235;-86
2022/03/09 19:21:54;;;;;;;9.47;6.37;;;;;;;8.90;20.85;101204.88;10236657;29;20212;-84
2022/03/09 19:26:56;;;;;;;9.93;5.93;;;;;;;8.79;21.59;101213.91;10226955;28;20259;-85
2022/03/09 19:31:59;;;;;;;8.43;5.97;;;;;;;8.55;20.89;101220.53;10241288;28;20236;-86
2022/03/09 19:37:01;;;;;;;10.20;6.40;;;;;;;8.78;20.81;101213.06;10225989;29;20524;-86
2022/03/09 19:42:16;;;;;;;9.03;6.20;;;;;;;8.24;22.78;101222.31;10226521;28;20682;-84
2022/03/09 19:47:18;;;;;;;10.67;6.07;;;;;;;8.14;23.08;101228.16;10265947;28;20259;-84
2022/03/09 19:52:25;;;;;;;11.73;7.27;;;;;;;7.99;21.87;101222.78;10247725;28;20219;-85
2022/03/09 19:57:35;;;;;;;13.80;7.13;;;;;;;8.21;21.85;101228.56;10224584;29;20592;-86
2022/03/09 20:02:37;;;;;;;11.33;7.10;;;;;;;7.84;21.92;101236.00;10226810;29;20293;-85
2022/03/09 20:07:40;;;;;;;9.17;6.23;;;;;;;8.20;21.74;101241.81;10224398;29;20279;-85
2022/03/09 20:12:42;;;;;;;10.17;6.50;;;;;;;8.72;21.58;101241.66;10187478;29;20530;-85
2022/03/09 20:17:45;;;;;;;6.93;5.57;;;;;;;8.64;22.29;101240.38;10256608;29;20293;-86
2022/03/09 20:22:47;;;;;;;14.30;7.10;;;;;;;8.14;21.64;101250.69;10247296;29;20207;-85
2022/03/09 20:27:49;;;;;;;13.50;7.10;;;;;;;8.24;21.89;101258.94;10247991;29;20262;-85
2022/03/09 20:32:55;;;;;;;9.03;6.20;;;;;;;8.05;23.01;101258.16;10243320;29;20255;-85
2022/03/09 20:37:57;;;;;;;10.53;6.73;;;;;;;8.05;22.60;101250.53;10241280;29;20219;-85
2022/03/09 20:43:00;;;;;;;10.93;7.53;;;;;;;7.73;22.77;101250.53;10241294;29;20332;-86
2022/03/09 20:48:02;;;;;;;8.37;6.07;;;;;;;7.62;24.07;101252.66;10246062;29;20219;-86
2022/03/09 20:53:06;;;;;;;10.83;6.93;;;;;;;7.84;22.13;101255.69;10255304;29;20276;-86
2022/03/09 20:58:08;;;;;;;11.27;7.17;;;;;;;8.03;21.85;101257.63;10233967;29;20215;-85
2022/03/09 21:03:11;;;;;;;9.83;6.60;;;;;;;7.79;22.40;101258.59;10250301;29;20195;-86
2022/03/09 21:08:14;;;;;;;15.50;8.13;;;;;;;7.21;24.80;101258.91;10252492;29;20211;-85
2022/03/09 21:13:16;;;;;;;12.50;7.40;;;;;;;6.66;25.30;101271.69;10261563;29;20215;-86
2022/03/09 21:18:19;;;;;;;13.23;8.63;;;;;;;7.01;24.56;101270.44;10244692;29;20235;-86
2022/03/09 21:23:21;;;;;;;17.07;8.07;;;;;;;6.53;25.47;101284.50;10237592;29;20207;-86
2022/03/09 21:28:28;;;;;;;15.30;8.47;;;;;;;6.61;24.57;101288.59;10228945;29;20242;-85
2022/03/09 21:33:30;;;;;;;12.27;8.00;;;;;;;6.66;25.09;101290.53;10227711;29;20286;-86
2022/03/09 21:38:33;;;;;;;12.17;7.83;;;;;;;6.29;26.30;101291.22;10232587;29;20227;-86
2022/03/09 21:43:35;;;;;;;14.30;7.73;;;;;;;5.99;26.14;101297.97;10256721;29;20234;-85
2022/03/09 21:48:38;;;;;;;10.40;7.40;;;;;;;6.16;25.96;101292.75;10260341;29;20210;-86
2022/03/09 21:53:40;;;;;;;13.40;7.17;;;;;;;6.03;26.10;101299.88;10247563;29;20211;-86
2022/03/09 21:58:42;;;;;;;12.47;7.53;;;;;;;6.08;25.79;101297.03;10239042;28;20568;-86
2022/03/09 22:03:44;;;;;;;11.20;6.47;;;;;;;6.64;24.90;101296.44;10257236;29;20199;-86
2022/03/09 22:08:47;;;;;;;12.00;7.70;;;;;;;7.00;24.80;101296.88;10263676;29;20199;-87
2022/03/09 22:13:49;;;;;;;12.90;7.37;;;;;;;7.25;23.84;101299.34;10264893;29;20228;-87
2022/03/09 22:18:51;;;;;;;10.27;6.90;;;;;;;7.46;23.26;101308.34;10263820;29;20255;-87
2022/03/09 22:23:54;;;;;;;9.93;7.20;;;;;;;7.20;23.75;101307.88;10246967;29;20207;-86
2022/03/09 22:28:56;;;;;;;10.83;6.73;;;;;;;7.41;22.93;101305.59;10227795;28;20272;-86
2022/03/09 22:33:59;;;;;;;10.23;6.40;;;;;;;7.08;22.90;101315.91;10237278;29;20235;-85
2022/03/09 22:39:01;;;;;;;9.33;7.00;;;;;;;6.82;23.21;101306.97;10244025;29;20219;-85
2022/03/09 22:44:04;;;;;;;11.90;7.00;;;;;;;7.16;22.43;101309.59;10240793;29;20203;-86
2022/03/09 22:49:06;;;;;;;12.03;7.23;;;;;;;6.64;23.41;101315.28;10261198;29;20207;-85
2022/03/09 22:54:08;;;;;;;10.70;7.63;;;;;;;7.08;22.72;101304.66;10259147;29;20629;-85
2022/03/09 22:59:11;;;;;;;12.90;8.13;;;;;;;7.07;22.79;101305.78;10249537;28;20199;-85
2022/03/09 23:04:13;;;;;;;11.53;7.50;;;;;;;7.56;22.49;101312.97;10292161;28;20238;-86
2022/03/09 23:09:16;;;;;;;11.07;7.67;;;;;;;7.44;22.46;101315.41;10297402;28;20218;-86
2022/03/09 23:14:18;;;;;;;10.53;7.77;;;;;;;6.69;23.31;101318.03;10281717;28;20265;-85
2022/03/09 23:19:20;;;;;;;13.23;8.13;;;;;;;7.06;22.80;101322.97;10237040;29;20207;-86
2022/03/09 23:24:23;;;;;;;12.47;7.20;;;;;;;7.28;23.02;101319.56;10242868;29;20203;-86
2022/03/09 23:29:25;;;;;;;9.67;7.73;;;;;;;7.32;23.41;101329.94;10226908;29;20270;-86